Flight Track Log - Related Links

Times and Time Zones

All times are in EDT time to prevent confusion due to time zone crossing. See the C-FCPO flight status page for this flight to view local times or setup timezone preferences in your user account.


Time Position Orientation Groundspeed Altitude Reporting Facility
EDT Latitude Longitude Course Direction KTS MPH feet Rate Location/Type
Sat 10:50:24 AM 42.2728 -82.9767 150° Southeast 118 136 1,000  Level Cleveland Center
Sat 10:51:38 AM 42.2542 -82.9619 150° Southeast 113 130 1,900 734 Climbing Cleveland Center
Sat 10:52:43 AM 42.2656 -82.9119 73° East 120 138 2,700 720 Climbing Cleveland Center
Sat 10:53:43 AM 42.2750 -82.8675 74° East 125 144 3,400 700 Climbing Cleveland Center
Sat 10:54:43 AM 42.2864 -82.8203 72° East 130 150 4,100 650 Climbing Cleveland Center
Sat 10:55:43 AM 42.2956 -82.7728 75° East 130 150 4,700 600 Climbing Cleveland Center
Sat 10:56:43 AM 42.3069 -82.7253 72° East 125 144 5,300 550 Climbing Cleveland Center
Sat 10:57:43 AM 42.3181 -82.6781 72° East 125 144 5,800 550 Climbing Cleveland Center
Sat 10:58:43 AM 42.3272 -82.6306 75° East 125 144 6,400 550 Climbing Cleveland Center
Sat 10:59:43 AM 42.3386 -82.5831 72° East 125 144 6,900 450 Climbing Cleveland Center
Sat 11:00:43 AM 42.3478 -82.5358 75° East 125 144 7,300 400 Climbing Cleveland Center
Sat 11:01:43 AM 42.3589 -82.4911 71° East 125 144 7,700 450 Climbing Cleveland Center
Sat 11:02:43 AM 42.3703 -82.4408 73° East 125 144 8,200 450 Climbing Cleveland Center
Sat 11:03:43 AM 42.3814 -82.3961 71° East 125 144 8,600 400 Climbing Cleveland Center
Sat 11:04:43 AM 42.3903 -82.3458 77° East 125 144 9,000 200 Climbing Cleveland Center
Sat 11:05:43 AM 42.4036 -82.2956 70° East 125 144 9,000  Level Cleveland Center
Sat 11:06:43 AM 42.4169 -82.2369 73° East 137 158 9,000  Level Cleveland Center
Sat 11:07:43 AM 42.4303 -82.1839 71° East 142 163 9,000  Level Cleveland Center
Sat 11:08:43 AM 42.4394 -82.1278 77° East 147 169 9,000 50 Level Cleveland Center
Sat 11:09:43 AM 42.4525 -82.0775 71° East 137 158 9,100  Climbing Cleveland Center
Sat 11:10:43 AM 42.4636 -82.0214 75° East 142 163 9,000 -50 Descending Cleveland Center
Sat 11:11:43 AM 42.4747 -81.9681 74° East 142 163 9,000  Level Cleveland Center
Sat 11:12:43 AM 42.4881 -81.9122 72° East 142 163 9,000  Level Cleveland Center
Sat 11:13:43 AM 42.4989 -81.8589 75° East 142 163 9,000  Level Cleveland Center
Sat 11:14:43 AM 42.5119 -81.8056 72° East 142 163 9,000  Level Cleveland Center
Sat 11:15:43 AM 42.5208 -81.7550 77° East 147 169 9,000  Level Cleveland Center
Sat 11:16:43 AM 42.5319 -81.7017 74° East 142 163 9,000  Level Cleveland Center
Sat 11:17:43 AM 42.5450 -81.6428 73° East 142 163 9,000  Level Cleveland Center
Sat 11:18:43 AM 42.5558 -81.5922 74° East 142 163 9,000  Level Cleveland Center
Sat 11:19:43 AM 42.5667 -81.5389 75° East 142 163 9,000  Level Cleveland Center
Sat 11:20:43 AM 42.5797 -81.4856 72° East 147 169 9,000  Level Cleveland Center
Sat 11:21:43 AM 42.5925 -81.4292 73° East 141 162 9,000  Level Cleveland Center
Sat 11:22:43 AM 42.6033 -81.3814 73° East 141 162 9,000  Level Cleveland Center
Sat 11:23:43 AM 42.6142 -81.3253 75° East 141 162 9,000  Level Cleveland Center
Sat 11:24:43 AM 42.6247 -81.2772 73° East 141 162 9,000  Level Cleveland Center
Sat 11:25:43 AM 42.6356 -81.2239 75° East 141 162 9,000  Level Cleveland Center
Sat 11:26:43 AM 42.6442 -81.1758 76° East 146 168 9,000 -50 Level Cleveland Center
Sat 11:27:43 AM 42.6547 -81.1253 74° East 141 162 8,900 -300 Descending Cleveland Center
Sat 11:28:43 AM 42.6675 -81.0689 73° East 147 169 8,400 -450 Descending Cleveland Center
Sat 11:29:43 AM 42.6803 -81.0097 74° East 152 175 8,000 -500 Descending Cleveland Center
Sat 11:30:43 AM 42.6908 -80.9475 77° East 157 181 7,400 -450 Descending Cleveland Center
Sat 11:31:43 AM 42.7058 -80.8911 70° East 163 188 7,100 -150 Descending Cleveland Center
Sat 11:32:43 AM 42.7331 -80.8461 51° Northeast 148 170 7,100 -50 Level Cleveland Center
Sat 11:33:43 AM 42.7600 -80.7981 53° Northeast 149 171 7,000 -50 Descending Cleveland Center
Sat 11:34:43 AM 42.7853 -80.7586 49° Northeast 139 160 7,000 -200 Level Cleveland Center
Sat 11:35:43 AM 42.8164 -80.7247 39° Northeast 128 147 6,600 -400 Descending Cleveland Center
Sat 11:36:43 AM 42.8436 -80.6936 40° Northeast 133 153 6,200 -573 Descending Cleveland Center
Sat 11:38:41 AM 42.9000 -80.5833 55° Northeast 160 184 4,900 -661 Descending Toronto Center

Login

Don't have an account? Register now (free) for customized features, flight alerts, and more!